Lloyd Harbor, New York
Current Conditions -  °F | °C
As of 1:53 PM on Friday 28 Nov 2014 (Local Time) from KFRG Reporting Station
Broken Clouds Broken Clouds  
Wind Chill: 30°   Ceiling: 4200
Heat Index: 38°   Visibility: 10mi
Dew Point: 19°   Wind: 14mph
Humidity: 47%   Direction: 320°NW
Pressure: 30.14"   Gusts: 22mph
Location:  40.8966°N, 73.4362°W
Report Text: KFRG 281853Z 32012G19KT 10SM BKN042 03/M07 A3014 RMK AO2 SLP208 T00331072
Loading
Personal Weather Stations






























Interactive Weather Map New forecast layout! Learn more

10-Day Weather Forecast

Advertisements
Track Severe Weather on mobile